Time;durP1;ratioP1;P1;durP2;ratioP2;P2;SDS_P1;SDS_P2;PMS_P1;PMS_P2;Temp;Humidity;BMP_temperature;BMP_pressure;BME280_temperature;BME280_humidity;BME280_pressure;Samples;Min_cycle;Max_cycle;Signal;HPM_P1;HPM_P2
2022/02/25 00:01:19;;;;;;;;;;;22.10;28.80;;;;;;5044427;28;20221;-45
2022/02/25 00:03:45;;;;;;;;;;;22.20;28.80;;;;;;5046832;28;20224;-47
2022/02/25 00:06:11;;;;;;;;;;;22.20;28.80;;;;;;5045028;28;19905;-47
2022/02/25 00:08:36;;;;;;;;;;;22.10;28.70;;;;;;5046649;28;20012;-48
2022/02/25 00:11:02;;;;;;;;;;;22.20;28.70;;;;;;5054433;28;19993;-46
2022/02/25 00:13:28;;;;;;;;;;;22.10;28.70;;;;;;5052201;28;19916;-48
2022/02/25 00:15:57;;;;;;;;;;;22.20;28.70;;;;;;5053094;28;19908;-45
2022/02/25 00:18:24;;;;;;;;;;;22.20;28.70;;;;;;5053595;28;19912;-48
2022/02/25 00:20:50;;;;;;;;;;;22.20;28.70;;;;;;5053043;28;19912;-49
2022/02/25 00:23:16;;;;;;;;;;;22.10;28.60;;;;;;5042078;28;19928;-51
2022/02/25 00:25:41;;;;;;;;;;;22.10;28.60;;;;;;5048136;28;19912;-46
2022/02/25 00:28:07;;;;;;;;;;;22.10;28.60;;;;;;5056811;28;19905;-44
2022/02/25 00:30:33;;;;;;;;;;;22.10;28.60;;;;;;5052669;28;19905;-47
2022/02/25 00:32:58;;;;;;;;;;;22.10;28.60;;;;;;5056141;28;20261;-51
2022/02/25 00:35:24;;;;;;;;;;;22.10;28.60;;;;;;5055489;28;20336;-47
2022/02/25 00:37:50;;;;;;;;;;;22.10;28.60;;;;;;5056535;28;19905;-44
2022/02/25 00:40:15;;;;;;;;;;;22.10;28.50;;;;;;5044785;28;20007;-45
2022/02/25 00:42:41;;;;;;;;;;;22.10;28.50;;;;;;5018896;28;19916;-47
2022/02/25 00:45:07;;;;;;;;;;;22.10;28.50;;;;;;5037989;28;19905;-50
2022/02/25 00:47:33;;;;;;;;;;;22.10;28.50;;;;;;5052676;28;20304;-49
2022/02/25 00:49:58;;;;;;;;;;;22.10;28.50;;;;;;5044900;28;20007;-48
2022/02/25 00:52:24;;;;;;;;;;;22.10;28.50;;;;;;5052911;28;20343;-45
2022/02/25 00:54:50;;;;;;;;;;;22.10;28.50;;;;;;5044821;28;20351;-46
2022/02/25 00:57:15;;;;;;;;;;;22.10;28.50;;;;;;5036462;28;19919;-45
2022/02/25 00:59:41;;;;;;;;;;;22.10;28.50;;;;;;5044941;28;19905;-46
2022/02/25 01:02:07;;;;;;;;;;;22.10;28.50;;;;;;5042183;28;19932;-46
2022/02/25 01:04:32;;;;;;;;;;;22.10;28.40;;;;;;5038789;28;19905;-45
2022/02/25 01:06:58;;;;;;;;;;;22.10;28.40;;;;;;5042504;28;19905;-44
2022/02/25 01:09:25;;;;;;;;;;;22.10;28.40;;;;;;5053903;28;19989;-45
2022/02/25 01:11:51;;;;;;;;;;;22.00;28.40;;;;;;5046895;28;19912;-45
2022/02/25 01:14:17;;;;;;;;;;;22.10;28.40;;;;;;5045226;28;19909;-44
2022/02/25 01:16:42;;;;;;;;;;;22.00;28.40;;;;;;5048562;28;19905;-48
2022/02/25 01:19:08;;;;;;;;;;;22.00;28.40;;;;;;5042819;28;20266;-45
2022/02/25 01:21:34;;;;;;;;;;;22.00;28.40;;;;;;5047446;28;20011;-46
2022/02/25 01:23:59;;;;;;;;;;;22.00;28.40;;;;;;5048658;28;20243;-46
2022/02/25 01:26:26;;;;;;;;;;;22.00;28.40;;;;;;5036601;28;19905;-49
2022/02/25 01:28:52;;;;;;;;;;;22.00;28.40;;;;;;5051232;28;19905;-46
2022/02/25 01:31:19;;;;;;;;;;;22.00;28.40;;;;;;5051677;28;19916;-48
2022/02/25 01:33:46;;;;;;;;;;;22.00;28.40;;;;;;5035466;28;19916;-49
2022/02/25 01:36:11;;;;;;;;;;;22.00;28.40;;;;;;5041464;28;19916;-47
2022/02/25 01:38:37;;;;;;;;;;;22.00;28.40;;;;;;5047460;28;19905;-47
2022/02/25 01:41:04;;;;;;;;;;;22.00;28.40;;;;;;5050020;28;20239;-52
2022/02/25 01:43:30;;;;;;;;;;;22.00;28.30;;;;;;5054784;28;20109;-47
2022/02/25 01:45:55;;;;;;;;;;;22.00;28.30;;;;;;5053101;28;20588;-47
2022/02/25 01:48:21;;;;;;;;;;;21.90;28.30;;;;;;5037275;28;19905;-48
2022/02/25 01:50:47;;;;;;;;;;;22.00;28.30;;;;;;5022357;28;19956;-48
2022/02/25 01:53:13;;;;;;;;;;;21.90;28.30;;;;;;5035638;28;19944;-47
2022/02/25 01:55:40;;;;;;;;;;;21.90;28.30;;;;;;5039694;28;19905;-45
2022/02/25 01:58:06;;;;;;;;;;;21.90;28.30;;;;;;5045744;28;20271;-50
2022/02/25 02:00:33;;;;;;;;;;;21.90;28.30;;;;;;5041526;28;19913;-46
2022/02/25 02:02:58;;;;;;;;;;;21.90;28.30;;;;;;5037517;28;19991;-46
2022/02/25 02:05:24;;;;;;;;;;;21.90;28.30;;;;;;5050088;28;19940;-47
2022/02/25 02:07:50;;;;;;;;;;;21.90;28.30;;;;;;5039933;28;19921;-47
2022/02/25 02:10:15;;;;;;;;;;;21.90;28.30;;;;;;5037932;28;19908;-47
2022/02/25 02:12:41;;;;;;;;;;;21.90;28.30;;;;;;5045015;28;19905;-48
2022/02/25 02:15:08;;;;;;;;;;;21.90;28.30;;;;;;5043937;28;20011;-44
2022/02/25 02:17:34;;;;;;;;;;;21.90;28.30;;;;;;5055095;28;19999;-49
2022/02/25 02:20:01;;;;;;;;;;;21.90;28.30;;;;;;5031461;28;19932;-47
2022/02/25 02:22:27;;;;;;;;;;;21.90;28.40;;;;;;5054465;28;19922;-45
2022/02/25 02:24:53;;;;;;;;;;;21.90;28.30;;;;;;5052931;28;19905;-45
2022/02/25 02:27:18;;;;;;;;;;;21.80;28.30;;;;;;5036129;28;19912;-44
2022/02/25 02:29:44;;;;;;;;;;;21.80;28.30;;;;;;5034807;28;19971;-48
2022/02/25 02:32:10;;;;;;;;;;;21.80;28.30;;;;;;5052676;28;20282;-48
2022/02/25 02:34:36;;;;;;;;;;;21.80;28.30;;;;;;5052908;28;19905;-45
2022/02/25 02:37:02;;;;;;;;;;;21.80;28.40;;;;;;5052284;28;20181;-45
2022/02/25 02:39:27;;;;;;;;;;;21.80;28.40;;;;;;5053390;28;19905;-47
2022/02/25 02:41:53;;;;;;;;;;;21.80;28.40;;;;;;5039664;28;20201;-46
2022/02/25 02:44:18;;;;;;;;;;;21.80;28.40;;;;;;5045538;28;20292;-46
2022/02/25 02:46:44;;;;;;;;;;;21.80;28.40;;;;;;5053875;28;20008;-52
2022/02/25 02:49:10;;;;;;;;;;;21.80;28.40;;;;;;5051756;28;19958;-44
2022/02/25 02:51:35;;;;;;;;;;;21.80;28.40;;;;;;5034642;28;19904;-43
2022/02/25 02:54:01;;;;;;;;;;;21.70;28.40;;;;;;5034708;28;19905;-46
2022/02/25 02:56:27;;;;;;;;;;;21.70;28.40;;;;;;5041417;28;19987;-44
2022/02/25 02:58:56;;;;;;;;;;;21.70;28.40;;;;;;5054591;28;19908;-46
2022/02/25 03:01:26;;;;;;;;;;;21.70;28.50;;;;;;5029104;28;19924;-49
2022/02/25 03:03:52;;;;;;;;;;;21.80;28.50;;;;;;5036612;28;19959;-48
2022/02/25 03:06:17;;;;;;;;;;;21.70;28.50;;;;;;5040050;28;19905;-47
2022/02/25 03:08:43;;;;;;;;;;;21.70;28.50;;;;;;5039851;28;20324;-47
2022/02/25 03:11:09;;;;;;;;;;;21.70;28.50;;;;;;5048454;28;19905;-52
2022/02/25 03:13:35;;;;;;;;;;;21.70;28.50;;;;;;5044619;28;20320;-48
2022/02/25 03:16:00;;;;;;;;;;;21.70;28.50;;;;;;5053858;28;19905;-48
2022/02/25 03:18:26;;;;;;;;;;;21.70;28.50;;;;;;5038126;28;20327;-46
2022/02/25 03:20:52;;;;;;;;;;;21.70;28.50;;;;;;5039808;28;19912;-49
2022/02/25 03:23:17;;;;;;;;;;;21.70;28.50;;;;;;5056538;28;19912;-45
2022/02/25 03:25:43;;;;;;;;;;;21.70;28.50;;;;;;5046935;28;19905;-46
2022/02/25 03:28:09;;;;;;;;;;;21.60;28.50;;;;;;5050700;28;20272;-49
2022/02/25 03:30:34;;;;;;;;;;;21.60;28.50;;;;;;5042933;28;19904;-48
2022/02/25 03:33:00;;;;;;;;;;;21.70;28.60;;;;;;5056593;28;20324;-45
2022/02/25 03:35:26;;;;;;;;;;;21.60;28.50;;;;;;5055798;28;20008;-45
2022/02/25 03:37:51;;;;;;;;;;;21.60;28.60;;;;;;5045460;28;19905;-51
2022/02/25 03:40:17;;;;;;;;;;;21.60;28.60;;;;;;5039451;28;19916;-48
2022/02/25 03:42:43;;;;;;;;;;;21.60;28.60;;;;;;5056429;28;19946;-46
2022/02/25 03:45:09;;;;;;;;;;;21.60;28.60;;;;;;5046646;28;19915;-47
2022/02/25 03:47:35;;;;;;;;;;;21.60;28.60;;;;;;5020127;28;20309;-44
2022/02/25 03:50:01;;;;;;;;;;;21.60;28.60;;;;;;5046206;28;19904;-47
2022/02/25 03:52:27;;;;;;;;;;;21.50;28.60;;;;;;5042826;28;20204;-50
2022/02/25 03:54:53;;;;;;;;;;;21.60;28.60;;;;;;5037610;28;19955;-49
2022/02/25 03:57:18;;;;;;;;;;;21.50;28.60;;;;;;5037188;28;19990;-52
2022/02/25 03:59:44;;;;;;;;;;;21.50;28.60;;;;;;5052243;28;20228;-52
2022/02/25 04:02:10;;;;;;;;;;;21.50;28.60;;;;;;5049784;28;20062;-46
2022/02/25 04:04:35;;;;;;;;;;;21.50;28.60;;;;;;5020822;28;19924;-46
2022/02/25 04:07:01;;;;;;;;;;;21.50;28.60;;;;;;5052254;28;20389;-45
2022/02/25 04:09:27;;;;;;;;;;;21.50;28.60;;;;;;5041322;28;20395;-45
2022/02/25 04:11:53;;;;;;;;;;;21.50;28.60;;;;;;5036743;28;19916;-47
2022/02/25 04:14:19;;;;;;;;;;;21.50;28.70;;;;;;5029444;28;19904;-45
2022/02/25 04:16:48;;;;;;;;;;;21.50;28.60;;;;;;5055856;28;19915;-47
2022/02/25 04:19:15;;;;;;;;;;;21.40;28.60;;;;;;5045341;28;19905;-48
2022/02/25 04:21:41;;;;;;;;;;;21.40;28.60;;;;;;5056671;28;20258;-46
2022/02/25 04:24:07;;;;;;;;;;;21.40;28.60;;;;;;5047372;28;19923;-44
2022/02/25 04:26:32;;;;;;;;;;;21.40;28.60;;;;;;5042751;28;19909;-44
2022/02/25 04:28:58;;;;;;;;;;;21.40;28.60;;;;;;5045077;28;19954;-47
2022/02/25 04:31:24;;;;;;;;;;;21.40;28.60;;;;;;5050632;28;19956;-45
2022/02/25 04:33:50;;;;;;;;;;;21.40;28.60;;;;;;5051059;28;19905;-44
2022/02/25 04:36:17;;;;;;;;;;;21.40;28.60;;;;;;5043476;28;20236;-44
2022/02/25 04:38:42;;;;;;;;;;;21.40;28.60;;;;;;5037831;28;20055;-45
2022/02/25 04:41:08;;;;;;;;;;;21.40;28.60;;;;;;5039832;28;20052;-45
2022/02/25 04:43:34;;;;;;;;;;;21.40;28.70;;;;;;5037022;28;19908;-43
2022/02/25 04:45:59;;;;;;;;;;;21.40;28.70;;;;;;5052034;28;19955;-47
2022/02/25 04:48:26;;;;;;;;;;;21.40;28.70;;;;;;5054561;28;19904;-45
2022/02/25 04:50:52;;;;;;;;;;;21.40;28.70;;;;;;5035593;28;19916;-51
2022/02/25 04:53:18;;;;;;;;;;;21.40;28.70;;;;;;5036335;28;19905;-48
2022/02/25 04:55:46;;;;;;;;;;;21.40;28.70;;;;;;5047324;28;19982;-47
2022/02/25 04:58:13;;;;;;;;;;;21.40;28.70;;;;;;5018745;28;20316;-46
2022/02/25 05:00:38;;;;;;;;;;;21.40;28.70;;;;;;5048898;28;19995;-47
2022/02/25 05:03:04;;;;;;;;;;;21.40;28.70;;;;;;5019044;28;20360;-43
2022/02/25 05:05:30;;;;;;;;;;;21.30;28.70;;;;;;5027537;28;19912;-46
2022/02/25 05:07:57;;;;;;;;;;;21.30;28.70;;;;;;5028594;28;20004;-46
2022/02/25 05:10:22;;;;;;;;;;;21.30;28.70;;;;;;5030140;28;19959;-51
2022/02/25 05:12:48;;;;;;;;;;;21.30;28.70;;;;;;5022172;28;19909;-51
2022/02/25 05:20:43;;;;;;;;;;;21.30;28.70;;;;;;5027353;28;19913;-49
2022/02/25 05:23:09;;;;;;;;;;;21.30;28.70;;;;;;5023206;28;19906;-44
2022/02/25 05:25:35;;;;;;;;;;;21.30;28.70;;;;;;5026258;28;19963;-45
2022/02/25 05:28:02;;;;;;;;;;;21.30;28.80;;;;;;5032206;28;19940;-49
2022/02/25 05:30:28;;;;;;;;;;;21.30;28.80;;;;;;5033109;28;20362;-46
2022/02/25 05:32:54;;;;;;;;;;;21.20;28.70;;;;;;5026153;28;19956;-49
2022/02/25 05:35:20;;;;;;;;;;;21.20;28.70;;;;;;5033102;28;19970;-48
2022/02/25 05:37:46;;;;;;;;;;;21.20;28.70;;;;;;5016724;28;20305;-46
2022/02/25 05:40:13;;;;;;;;;;;21.20;28.70;;;;;;5016302;28;19913;-46
2022/02/25 05:42:39;;;;;;;;;;;21.20;28.80;;;;;;5020495;28;19920;-43
2022/02/25 05:45:06;;;;;;;;;;;21.20;28.70;;;;;;5033942;28;20388;-47
2022/02/25 05:47:31;;;;;;;;;;;21.20;28.80;;;;;;5018203;28;19992;-47
2022/02/25 05:49:57;;;;;;;;;;;21.20;28.80;;;;;;5030672;28;19952;-44
2022/02/25 05:52:23;;;;;;;;;;;21.20;28.70;;;;;;5026169;28;20004;-44
2022/02/25 05:54:49;;;;;;;;;;;21.20;28.70;;;;;;5033515;28;19942;-46
2022/02/25 05:57:16;;;;;;;;;;;21.20;28.80;;;;;;5045434;28;19931;-45
2022/02/25 05:59:42;;;;;;;;;;;21.20;28.80;;;;;;5033285;28;19967;-49
2022/02/25 06:02:08;;;;;;;;;;;21.20;28.80;;;;;;5034843;28;19909;-47
2022/02/25 06:04:34;;;;;;;;;;;21.20;29.30;;;;;;5048624;28;19905;-46
2022/02/25 06:07:00;;;;;;;;;;;21.20;28.80;;;;;;5055187;28;19904;-46
2022/02/25 06:09:25;;;;;;;;;;;21.20;28.80;;;;;;5054248;28;19951;-46
2022/02/25 06:11:51;;;;;;;;;;;21.10;28.80;;;;;;5055112;28;20247;-49
2022/02/25 06:14:17;;;;;;;;;;;21.10;28.80;;;;;;5043133;28;20381;-45
2022/02/25 06:16:42;;;;;;;;;;;21.10;28.80;;;;;;5034944;28;19905;-46
2022/02/25 06:19:08;;;;;;;;;;;21.10;28.80;;;;;;5037268;28;19916;-49
2022/02/25 06:21:35;;;;;;;;;;;21.10;28.90;;;;;;5062810;28;19909;-47
2022/02/25 06:24:01;;;;;;;;;;;21.10;28.90;;;;;;5059918;28;19905;-46
2022/02/25 06:26:27;;;;;;;;;;;21.10;28.90;;;;;;5053388;28;19917;-44
2022/02/25 06:28:53;;;;;;;;;;;21.10;28.90;;;;;;5048584;28;19905;-52
2022/02/25 06:31:19;;;;;;;;;;;21.10;28.90;;;;;;5032659;28;19963;-51
2022/02/25 06:33:45;;;;;;;;;;;21.10;28.90;;;;;;5054473;28;19916;-53
2022/02/25 06:36:10;;;;;;;;;;;21.10;28.90;;;;;;5052979;28;19911;-48
2022/02/25 06:38:36;;;;;;;;;;;21.10;28.90;;;;;;5037091;28;19909;-48
2022/02/25 06:41:02;;;;;;;;;;;21.10;29.00;;;;;;5056220;28;20300;-49
2022/02/25 06:43:28;;;;;;;;;;;21.10;28.90;;;;;;5056189;28;19915;-48
2022/02/25 06:45:53;;;;;;;;;;;21.10;29.00;;;;;;5047678;28;20335;-48
2022/02/25 06:48:19;;;;;;;;;;;21.10;29.00;;;;;;5055628;28;20004;-44
2022/02/25 06:50:46;;;;;;;;;;;21.00;28.90;;;;;;5054648;28;20366;-47
2022/02/25 06:53:11;;;;;;;;;;;21.10;29.00;;;;;;5054854;28;19915;-44
2022/02/25 06:55:37;;;;;;;;;;;21.10;29.00;;;;;;5052888;28;19905;-47
2022/02/25 06:58:04;;;;;;;;;;;21.10;29.00;;;;;;5042284;28;19905;-47
2022/02/25 07:00:29;;;;;;;;;;;21.00;29.00;;;;;;5039198;28;19919;-50
2022/02/25 07:02:55;;;;;;;;;;;21.00;29.00;;;;;;5054259;28;19912;-46
2022/02/25 07:05:21;;;;;;;;;;;21.00;29.10;;;;;;5056131;28;19904;-49
2022/02/25 07:07:47;;;;;;;;;;;21.00;29.10;;;;;;5042899;28;19909;-46
2022/02/25 07:10:13;;;;;;;;;;;21.00;29.20;;;;;;5024367;28;20248;-47
2022/02/25 07:12:39;;;;;;;;;;;21.00;29.20;;;;;;5038665;28;19905;-47
2022/02/25 07:15:06;;;;;;;;;;;21.10;29.30;;;;;;5038891;28;19917;-49
2022/02/25 07:17:31;;;;;;;;;;;21.00;29.70;;;;;;5045494;28;19905;-48
2022/02/25 07:19:57;;;;;;;;;;;21.00;29.30;;;;;;5038007;28;19904;-46
2022/02/25 07:22:23;;;;;;;;;;;21.00;29.30;;;;;;5046657;28;19924;-47
2022/02/25 07:24:48;;;;;;;;;;;21.00;29.30;;;;;;5052816;28;19916;-44
2022/02/25 07:27:14;;;;;;;;;;;21.00;29.40;;;;;;5051802;28;19905;-46
2022/02/25 07:29:40;;;;;;;;;;;21.00;29.40;;;;;;5038812;28;19966;-45
2022/02/25 07:32:06;;;;;;;;;;;21.00;29.40;;;;;;5054813;28;19904;-48
2022/02/25 07:34:32;;;;;;;;;;;21.00;29.50;;;;;;5047638;28;19905;-44
2022/02/25 07:36:57;;;;;;;;;;;21.00;29.50;;;;;;5053121;28;20221;-45
2022/02/25 07:39:23;;;;;;;;;;;21.00;29.60;;;;;;5053750;28;20070;-47
2022/02/25 07:41:48;;;;;;;;;;;21.00;29.70;;;;;;5054843;28;20387;-49
2022/02/25 07:44:14;;;;;;;;;;;21.00;29.70;;;;;;5041365;28;19913;-49
2022/02/25 07:46:40;;;;;;;;;;;21.10;29.80;;;;;;5045162;28;20054;-52
2022/02/25 07:49:06;;;;;;;;;;;21.10;29.80;;;;;;5053491;28;19962;-45
2022/02/25 07:51:31;;;;;;;;;;;21.20;29.80;;;;;;5038138;28;20446;-46
2022/02/25 07:54:01;;;;;;;;;;;21.30;29.70;;;;;;5038422;28;19915;-50
2022/02/25 07:56:27;;;;;;;;;;;21.40;30.20;;;;;;5046278;28;19963;-49
2022/02/25 07:58:52;;;;;;;;;;;21.50;29.70;;;;;;5037198;28;19952;-47
2022/02/25 08:01:19;;;;;;;;;;;21.60;29.60;;;;;;5044522;28;20016;-50
2022/02/25 08:03:44;;;;;;;;;;;21.70;29.70;;;;;;5039720;28;20350;-46
2022/02/25 08:06:11;;;;;;;;;;;21.80;29.70;;;;;;5044933;28;19999;-48
2022/02/25 08:08:37;;;;;;;;;;;21.90;29.70;;;;;;5039534;28;19999;-45
2022/02/25 08:11:04;;;;;;;;;;;22.00;29.70;;;;;;5035679;28;19912;-46
2022/02/25 08:13:30;;;;;;;;;;;22.10;29.80;;;;;;5056474;28;20328;-47
2022/02/25 08:15:55;;;;;;;;;;;22.10;29.70;;;;;;5049996;28;19931;-45
2022/02/25 08:18:21;;;;;;;;;;;22.20;29.70;;;;;;5050353;28;19909;-47
2022/02/25 08:20:46;;;;;;;;;;;22.30;29.70;;;;;;5040946;28;20007;-46
2022/02/25 08:23:12;;;;;;;;;;;22.40;29.70;;;;;;5052356;28;19909;-46
2022/02/25 08:25:38;;;;;;;;;;;22.50;29.70;;;;;;5040756;28;19915;-50
2022/02/25 08:28:06;;;;;;;;;;;22.60;29.60;;;;;;5055697;28;19904;-46
2022/02/25 08:30:32;;;;;;;;;;;22.60;29.60;;;;;;5053630;28;19905;-46
2022/02/25 08:33:00;;;;;;;;;;;22.70;29.50;;;;;;5050854;28;19905;-51
2022/02/25 08:35:26;;;;;;;;;;;22.80;29.50;;;;;;5054322;28;19967;-46
2022/02/25 08:37:52;;;;;;;;;;;22.90;29.50;;;;;;5056577;28;19948;-45
2022/02/25 08:40:18;;;;;;;;;;;23.00;29.40;;;;;;5055433;28;19969;-46
2022/02/25 08:42:44;;;;;;;;;;;23.00;29.40;;;;;;5053208;28;19952;-48
2022/02/25 08:45:10;;;;;;;;;;;23.10;29.30;;;;;;5042623;28;19904;-46
2022/02/25 08:47:36;;;;;;;;;;;23.20;29.30;;;;;;5055020;28;19923;-50
2022/02/25 08:50:02;;;;;;;;;;;23.20;29.20;;;;;;5053453;28;20304;-46
2022/02/25 08:52:27;;;;;;;;;;;23.30;29.20;;;;;;5054660;28;20295;-46
2022/02/25 08:54:53;;;;;;;;;;;23.40;29.20;;;;;;5055360;28;19952;-46
2022/02/25 08:57:19;;;;;;;;;;;23.40;29.20;;;;;;5046623;28;19974;-44
2022/02/25 08:59:45;;;;;;;;;;;23.50;29.20;;;;;;5053546;28;19905;-46
2022/02/25 09:02:11;;;;;;;;;;;23.50;29.10;;;;;;5055120;28;19912;-43
2022/02/25 09:04:37;;;;;;;;;;;23.60;29.20;;;;;;5055145;28;19908;-43
2022/02/25 09:07:02;;;;;;;;;;;23.60;29.10;;;;;;5055589;28;20239;-46
2022/02/25 09:09:28;;;;;;;;;;;23.60;29.10;;;;;;5021062;28;19905;-43
2022/02/25 09:11:54;;;;;;;;;;;23.70;29.10;;;;;;5036175;28;19905;-44
2022/02/25 09:14:20;;;;;;;;;;;23.70;29.00;;;;;;5051416;28;19905;-47
2022/02/25 09:16:46;;;;;;;;;;;23.70;29.00;;;;;;5030163;28;19978;-45
2022/02/25 09:19:12;;;;;;;;;;;23.70;29.00;;;;;;5035343;28;19959;-45
2022/02/25 09:21:37;;;;;;;;;;;23.80;29.00;;;;;;5041432;28;19913;-45
2022/02/25 09:24:03;;;;;;;;;;;23.80;28.90;;;;;;5055528;28;19937;-42
2022/02/25 09:26:29;;;;;;;;;;;23.90;28.90;;;;;;5046260;28;19905;-44
2022/02/25 09:28:56;;;;;;;;;;;23.90;28.90;;;;;;5035353;28;19905;-42
2022/02/25 09:31:22;;;;;;;;;;;23.90;28.80;;;;;;5043555;28;19908;-43
2022/02/25 09:33:48;;;;;;;;;;;23.90;28.80;;;;;;5052063;28;20240;-46
2022/02/25 09:36:13;;;;;;;;;;;23.90;28.80;;;;;;5048725;28;20305;-46
2022/02/25 09:38:40;;;;;;;;;;;23.90;28.80;;;;;;5035793;28;19905;-48
2022/02/25 09:41:06;;;;;;;;;;;23.90;28.70;;;;;;5036632;28;20275;-45
2022/02/25 09:43:33;;;;;;;;;;;24.00;28.80;;;;;;5045425;28;20245;-47
2022/02/25 09:46:02;;;;;;;;;;;24.00;28.80;;;;;;5043302;28;19915;-43
2022/02/25 09:48:28;;;;;;;;;;;24.00;28.70;;;;;;5035186;28;19905;-46
2022/02/25 09:50:54;;;;;;;;;;;23.90;28.70;;;;;;5038358;28;20324;-45
2022/02/25 09:53:20;;;;;;;;;;;23.90;28.70;;;;;;5053693;28;19941;-43
2022/02/25 09:55:46;;;;;;;;;;;23.90;28.70;;;;;;5053506;28;20283;-46
2022/02/25 09:58:12;;;;;;;;;;;23.90;28.60;;;;;;5051098;28;19952;-43
2022/02/25 10:00:39;;;;;;;;;;;23.80;28.60;;;;;;5043577;28;20371;-50
2022/02/25 10:03:10;;;;;;;;;;;23.80;28.60;;;;;;5045217;28;19940;-46
2022/02/25 10:05:36;;;;;;;;;;;23.70;28.60;;;;;;5042618;28;20068;-43
2022/02/25 10:08:12;;;;;;;;;;;23.70;28.60;;;;;;5052517;28;19916;-45
2022/02/25 10:10:51;;;;;;;;;;;23.70;28.70;;;;;;5055026;28;19991;-46
2022/02/25 10:13:18;;;;;;;;;;;23.60;28.70;;;;;;5058564;28;19982;-44
2022/02/25 10:15:44;;;;;;;;;;;23.60;28.70;;;;;;5059437;28;20315;-44
2022/02/25 10:18:12;;;;;;;;;;;23.50;28.70;;;;;;5059330;28;19904;-44
2022/02/25 10:20:38;;;;;;;;;;;23.50;28.90;;;;;;5059763;28;19919;-45
2022/02/25 10:23:19;;;;;;;;;;;23.50;28.90;;;;;;5058790;28;20007;-44
2022/02/25 10:25:45;;;;;;;;;;;23.40;28.90;;;;;;5058379;28;19955;-47
2022/02/25 10:28:11;;;;;;;;;;;23.40;28.90;;;;;;5059089;28;19935;-49
2022/02/25 10:30:38;;;;;;;;;;;23.40;28.90;;;;;;5059004;28;19909;-46
2022/02/25 10:33:04;;;;;;;;;;;23.40;29.00;;;;;;5058869;28;19966;-43
2022/02/25 10:35:32;;;;;;;;;;;23.30;29.00;;;;;;5058186;28;20319;-43
2022/02/25 10:37:59;;;;;;;;;;;23.30;28.90;;;;;;5058807;28;19969;-45
2022/02/25 10:40:25;;;;;;;;;;;23.30;28.90;;;;;;5058431;28;20383;-44
2022/02/25 10:42:51;;;;;;;;;;;23.30;29.00;;;;;;5058956;28;19994;-43
2022/02/25 10:45:27;;;;;;;;;;;23.30;29.00;;;;;;5058547;28;19951;-44
2022/02/25 10:47:56;;;;;;;;;;;23.30;29.00;;;;;;5058732;28;19916;-45
2022/02/25 10:50:25;;;;;;;;;;;23.20;29.00;;;;;;5058101;28;20344;-44
2022/02/25 10:52:52;;;;;;;;;;;23.20;29.00;;;;;;5058394;28;19915;-45
2022/02/25 10:55:19;;;;;;;;;;;23.20;29.00;;;;;;5058278;28;19905;-49
2022/02/25 10:57:46;;;;;;;;;;;23.20;29.00;;;;;;5058654;28;20415;-42
2022/02/25 11:00:12;;;;;;;;;;;23.10;29.00;;;;;;5058543;28;20311;-45
2022/02/25 11:02:39;;;;;;;;;;;23.10;29.10;;;;;;5058040;28;19913;-47
2022/02/25 11:05:10;;;;;;;;;;;23.10;29.10;;;;;;5058283;28;20007;-46
2022/02/25 11:07:38;;;;;;;;;;;23.10;29.10;;;;;;5058618;28;19908;-43
2022/02/25 11:10:05;;;;;;;;;;;23.10;29.10;;;;;;5058129;28;19905;-47
2022/02/25 11:12:31;;;;;;;;;;;23.10;29.10;;;;;;5058381;28;19914;-45
2022/02/25 11:14:57;;;;;;;;;;;23.10;29.10;;;;;;5057737;28;19995;-47
2022/02/25 11:17:23;;;;;;;;;;;23.10;29.10;;;;;;5057752;28;19951;-45
2022/02/25 11:19:50;;;;;;;;;;;23.10;29.10;;;;;;5058264;28;19904;-46
2022/02/25 11:22:19;;;;;;;;;;;23.10;29.10;;;;;;5057762;28;20317;-42
2022/02/25 11:24:46;;;;;;;;;;;23.10;29.70;;;;;;5056006;28;19916;-45
2022/02/25 11:27:13;;;;;;;;;;;23.00;29.10;;;;;;5057581;28;19912;-47
2022/02/25 11:29:48;;;;;;;;;;;23.00;29.10;;;;;;5057274;28;20327;-47
2022/02/25 11:32:18;;;;;;;;;;;23.00;29.10;;;;;;5055056;28;19974;-45
2022/02/25 11:34:44;;;;;;;;;;;23.00;29.20;;;;;;5040174;28;19911;-49
2022/02/25 11:37:10;;;;;;;;;;;23.00;29.20;;;;;;5056159;28;20403;-44
2022/02/25 11:39:43;;;;;;;;;;;23.00;29.20;;;;;;5043721;28;19962;-49
2022/02/25 11:42:10;;;;;;;;;;;23.00;29.20;;;;;;5056920;28;19912;-51
2022/02/25 11:44:36;;;;;;;;;;;23.00;29.20;;;;;;5049591;28;20336;-53
2022/02/25 11:47:03;;;;;;;;;;;23.00;29.20;;;;;;5051498;28;19915;-50
2022/02/25 11:49:30;;;;;;;;;;;23.00;29.20;;;;;;5042881;28;19936;-51
2022/02/25 11:51:57;;;;;;;;;;;23.00;29.20;;;;;;5040287;28;20220;-50
2022/02/25 11:54:35;;;;;;;;;;;22.90;29.20;;;;;;5046003;28;19967;-50
2022/02/25 11:57:04;;;;;;;;;;;23.00;29.20;;;;;;5055408;28;19944;-54
2022/02/25 11:59:33;;;;;;;;;;;22.90;29.20;;;;;;5051797;28;19995;-49
2022/02/25 12:02:05;;;;;;;;;;;22.90;29.20;;;;;;5056322;28;19913;-50
2022/02/25 12:04:36;;;;;;;;;;;22.90;29.20;;;;;;5055601;28;20018;-49
2022/02/25 12:07:03;;;;;;;;;;;22.90;29.20;;;;;;5056119;28;19995;-46
2022/02/25 12:09:55;;;;;;;;;;;22.90;29.20;;;;;;5051655;28;19959;-43
2022/02/25 12:12:24;;;;;;;;;;;23.00;29.30;;;;;;5047601;28;19904;-43
2022/02/25 12:15:06;;;;;;;;;;;23.00;29.30;;;;;;5044020;28;20410;-43
2022/02/25 12:17:34;;;;;;;;;;;23.00;29.30;;;;;;5056048;28;19908;-44
2022/02/25 12:20:07;;;;;;;;;;;23.00;29.30;;;;;;5048247;28;19916;-46
2022/02/25 12:22:46;;;;;;;;;;;23.00;29.30;;;;;;5044390;28;20324;-42
2022/02/25 12:25:12;;;;;;;;;;;23.00;29.30;;;;;;5038360;28;19909;-43
2022/02/25 12:27:38;;;;;;;;;;;23.00;29.40;;;;;;5054977;28;20205;-43
2022/02/25 12:30:22;;;;;;;;;;;23.00;29.40;;;;;;5034868;28;20239;-44
2022/02/25 12:32:48;;;;;;;;;;;23.00;29.40;;;;;;5053204;28;19908;-44
2022/02/25 12:35:14;;;;;;;;;;;23.00;29.50;;;;;;5045748;28;19991;-47
2022/02/25 12:37:40;;;;;;;;;;;23.00;29.50;;;;;;5036380;28;19905;-45
2022/02/25 12:40:08;;;;;;;;;;;23.00;29.50;;;;;;5049187;28;19912;-45
2022/02/25 12:42:34;;;;;;;;;;;23.00;29.50;;;;;;5056658;28;20016;-44
2022/02/25 12:45:00;;;;;;;;;;;23.00;29.50;;;;;;5038965;28;20304;-45
2022/02/25 12:47:30;;;;;;;;;;;23.00;30.00;;;;;;5037455;28;19995;-46
2022/02/25 12:49:55;;;;;;;;;;;23.00;29.50;;;;;;5052496;28;20294;-49
2022/02/25 12:52:21;;;;;;;;;;;23.00;29.50;;;;;;5054499;28;19904;-47
2022/02/25 12:54:47;;;;;;;;;;;23.00;29.60;;;;;;5040635;28;19909;-46
2022/02/25 12:57:20;;;;;;;;;;;22.90;29.60;;;;;;5105970;27;19912;-45
2022/02/25 12:59:49;;;;;;;;;;;23.00;29.70;;;;;;5095332;28;20227;-47
2022/02/25 13:02:16;;;;;;;;;;;23.00;29.70;;;;;;5093436;28;19969;-46
2022/02/25 13:04:44;;;;;;;;;;;23.00;29.70;;;;;;5092169;28;19912;-45
2022/02/25 13:07:10;;;;;;;;;;;23.00;29.70;;;;;;5095675;28;20019;-49
2022/02/25 13:09:36;;;;;;;;;;;23.10;29.80;;;;;;5111525;28;19908;-47
2022/02/25 13:12:04;;;;;;;;;;;23.10;29.80;;;;;;5111535;28;19908;-48
2022/02/25 13:14:33;;;;;;;;;;;23.10;29.80;;;;;;5095528;28;19958;-52
2022/02/25 13:17:05;;;;;;;;;;;23.00;29.80;;;;;;5111205;28;20419;-47
2022/02/25 13:19:35;;;;;;;;;;;23.00;29.80;;;;;;5112718;28;20241;-55
2022/02/25 13:22:11;;;;;;;;;;;23.00;29.80;;;;;;5096601;28;19920;-47
2022/02/25 13:24:49;;;;;;;;;;;23.00;29.80;;;;;;5106854;28;19912;-46
2022/02/25 13:27:15;;;;;;;;;;;23.00;29.80;;;;;;5112677;28;20003;-46
2022/02/25 13:29:47;;;;;;;;;;;23.00;29.80;;;;;;5095555;28;20066;-50
2022/02/25 13:32:13;;;;;;;;;;;23.00;29.90;;;;;;5092448;28;20334;-51
2022/02/25 13:34:39;;;;;;;;;;;23.00;29.90;;;;;;5093263;28;19920;-50
2022/02/25 13:37:06;;;;;;;;;;;23.00;29.90;;;;;;5109061;28;19959;-51
2022/02/25 13:39:32;;;;;;;;;;;23.00;29.90;;;;;;5104062;28;19955;-50
2022/02/25 13:41:58;;;;;;;;;;;22.90;29.90;;;;;;5092106;28;19908;-53
2022/02/25 13:44:31;;;;;;;;;;;22.90;29.90;;;;;;5092723;28;19908;-53
2022/02/25 13:52:19;;;;;;;;;;;22.90;29.90;;;;;;5102631;28;19994;-51
2022/02/25 13:52:44;;;;;;;;;;;22.80;29.70;;;;;;5005488;28;19913;-52
2022/02/25 13:55:12;;;;;;;;;;;22.70;29.60;;;;;;5085923;28;20050;-48
2022/02/25 13:57:40;;;;;;;;;;;22.70;29.50;;;;;;5090434;28;19909;-46
2022/02/25 14:00:17;;;;;;;;;;;22.70;29.50;;;;;;5094568;28;20304;-47
2022/02/25 14:02:45;;;;;;;;;;;22.70;29.50;;;;;;5091773;28;19963;-45
2022/02/25 14:05:11;;;;;;;;;;;22.70;29.60;;;;;;5089907;28;19919;-48
2022/02/25 14:07:38;;;;;;;;;;;22.70;29.60;;;;;;5083248;28;19908;-49
2022/02/25 14:10:05;;;;;;;;;;;22.70;29.70;;;;;;5079109;28;20213;-50
2022/02/25 14:12:42;;;;;;;;;;;22.70;29.70;;;;;;5077430;28;20015;-48
2022/02/25 14:15:11;;;;;;;;;;;22.70;29.70;;;;;;5085310;28;19919;-47
2022/02/25 14:17:36;;;;;;;;;;;22.60;29.70;;;;;;5080844;28;19908;-51
2022/02/25 14:20:04;;;;;;;;;;;22.60;29.70;;;;;;5081360;28;19995;-48
2022/02/25 14:22:38;;;;;;;;;;;22.60;29.70;;;;;;5080080;28;19912;-50